• Join FlightAware (Why Join?)
  • Login
  • US Flag 
05:26PM EDT


 

Airport Tracker/Info


-or-


 

Live Flight TrackerFlight Track Log ✈ MPE439 ✈ 08-May-2013 ✈ CYZF - CYEG

Flight Track Log - Related Links

Times and Time Zones

All times are in EDT time to prevent confusion due to time zone crossing. See the MPE439 flight status page for this flight to view local times or setup timezone preferences in your user account.

Time Position Orientation Groundspeed Altitude Reporting Facility
EDT Latitude Longitude Course Direction KTS MPH feet Rate Location/Type
10:37PM 62.4333 -114.4833 214° Southwest 130 150 1,900  Level Edmonton Center
10:38PM 62.3833 -114.4667 171° South 210 242 4,300 3,000 Climbing Edmonton Center
10:39PM 62.3167 -114.4833 187° South 270 311 8,000 3,360 Climbing Edmonton Center
10:40PM 62.2333 -114.4500 169° South 290 334 11,100 2,700 Climbing Edmonton Center
10:41PM 62.1333 -114.4500 180° South 360 414 13,500 2,940 Climbing Edmonton Center
10:42PM 62.0333 -114.4667 184° South 390 449 17,000 2,880 Climbing Edmonton Center
10:43PM 61.9167 -114.4667 180° South 400 460 19,300 2,400 Climbing Edmonton Center
10:44PM 61.8000 -114.4167 169° South 420 483 21,800 2,400 Climbing Edmonton Center
10:45PM 61.6667 -114.4167 180° South 440 506 24,200 2,280 Climbing Edmonton Center
10:46PM 61.5333 -114.4167 180° South 450 518 26,400 1,920 Climbing Edmonton Center
10:47PM 61.4000 -114.4167 180° South 470 541 28,100 2,400 Climbing Edmonton Center
10:48PM 61.2833 -114.4167 180° South 460 529 31,300 2,400 Climbing Edmonton Center
10:49PM 61.1667 -114.4167 180° South 440 506 33,000 1,380 Climbing Edmonton Center
10:50PM 61.0333 -114.4167 180° South 440 506 34,100 900 Climbing Edmonton Center
10:51PM 60.9000 -114.4000 177° South 450 518 34,900 420 Climbing Edmonton Center
10:52PM 60.7833 -114.4000 180° South 450 518 35,000  Climbing Edmonton Center
10:53PM 60.6500 -114.4000 180° South 450 518 35,000  Level Edmonton Center
10:54PM 60.5167 -114.4000 180° South 450 518 35,000  Level Edmonton Center
10:55PM 60.4000 -114.3667 172° South 450 518 35,000  Level Edmonton Center
10:56PM 60.2667 -114.3667 180° South 440 506 35,000  Level Edmonton Center
10:57PM 60.1333 -114.3500 176° South 440 506 35,000  Level Edmonton Center
10:58PM 60.0167 -114.3500 180° South 440 506 35,000  Level Edmonton Center
10:59PM 59.9000 -114.3500 180° South 440 506 35,000  Level Edmonton Center
11:00PM 59.7833 -114.3500 180° South 440 506 35,000  Level Edmonton Center
11:01PM 59.6333 -114.3500 180° South 450 518 35,000  Level Edmonton Center
11:02PM 59.5167 -114.3500 180° South 440 506 35,000  Level Edmonton Center
11:03PM 59.4000 -114.3500 180° South 440 506 35,000  Level Edmonton Center
11:04PM 59.2667 -114.3167 173° South 440 506 35,000  Level Edmonton Center
11:05PM 59.1500 -114.3167 180° South 440 506 35,000  Level Edmonton Center
11:06PM 59.0333 -114.3167 180° South 440 506 35,000  Level Edmonton Center
11:07PM 58.8833 -114.3167 180° South 440 506 35,000  Level Edmonton Center
11:08PM 58.7667 -114.3167 180° South 440 506 35,000  Level Edmonton Center
11:09PM 58.6500 -114.3167 180° South 440 506 35,000  Level Edmonton Center
11:10PM 58.5333 -114.3167 180° South 440 506 35,000  Level Edmonton Center
11:11PM 58.4000 -114.3167 180° South 440 506 35,000  Level Edmonton Center
11:12PM 58.2833 -114.3167 180° South 440 506 35,000  Level Edmonton Center
11:13PM 58.1667 -114.2833 171° South 440 506 35,000  Level Edmonton Center
11:14PM 58.0167 -114.2667 177° South 440 506 35,000  Level Edmonton Center
11:15PM 57.9000 -114.2833 184° South 440 506 35,000  Level Edmonton Center
11:16PM 57.7667 -114.2667 176° South 450 518 35,000  Level Edmonton Center
11:17PM 57.6500 -114.2667 180° South 450 518 35,000  Level Edmonton Center
11:18PM 57.5333 -114.2667 180° South 450 518 35,000  Level Edmonton Center
11:19PM 57.4000 -114.2667 180° South 440 506 35,000  Level Edmonton Center
11:20PM 57.2667 -114.2667 180° South 440 506 35,000  Level Edmonton Center
11:21PM 57.1500 -114.2667 180° South 440 506 35,000  Level Edmonton Center
11:22PM 57.0333 -114.2333 171° South 440 506 35,000  Level Edmonton Center
11:23PM 56.9000 -114.2333 180° South 440 506 35,000  Level Edmonton Center
11:24PM 56.7833 -114.2333 180° South 440 506 35,000  Level Edmonton Center
11:25PM 56.6333 -114.2333 180° South 440 506 35,000  Level Edmonton Center
11:26PM 56.5167 -114.2333 180° South 440 506 35,000  Level Edmonton Center
11:27PM 56.4000 -114.2333 180° South 440 506 35,000  Level Edmonton Center
11:28PM 56.2833 -114.2333 180° South 440 506 35,000  Level Edmonton Center
11:29PM 56.1500 -114.2333 180° South 440 506 35,000  Level Edmonton Center
11:30PM 56.0333 -114.2333 180° South 440 506 35,000  Level Edmonton Center
11:31PM 55.9000 -114.2000 172° South 440 506 35,000  Level Edmonton Center
11:32PM 55.7833 -114.2000 180° South 440 506 35,000  Level Edmonton Center
11:33PM 55.6667 -114.2167 185° South 440 506 35,000  Level Edmonton Center
11:34PM 55.5333 -114.2000 176° South 440 506 35,000  Level Edmonton Center
11:35PM 55.4167 -114.2000 180° South 440 506 35,000  Level Edmonton Center
11:36PM 55.2833 -114.2000 180° South 440 506 35,000  Level Edmonton Center
11:37PM 55.1500 -114.2000 180° South 440 506 35,000  Level Edmonton Center
11:38PM 55.0333 -114.1833 175° South 440 506 35,000  Level Edmonton Center
11:39PM 54.9167 -114.1833 180° South 440 506 35,000  Level Edmonton Center
11:40PM 54.7833 -114.1833 180° South 440 506 35,000 -960 Level Edmonton Center
11:41PM 54.6667 -114.1833 180° South 430 495 33,100 -2,400 Descending Edmonton Center
11:42PM 54.5500 -114.1167 162° South 440 506 30,300 -2,820 Descending Edmonton Center
11:43PM 54.4333 -114.0333 157° South 430 495 27,500 -3,480 Descending Edmonton Center
11:44PM 54.3000 -113.9833 168° South 440 506 23,400 -3,420 Descending Edmonton Center
11:45PM 54.2000 -113.9000 154° Southeast 440 506 20,700 -2,280 Descending Edmonton Center
11:46PM 54.1000 -113.8500 164° South 390 449 18,900 -1,980 Descending Edmonton Center
11:47PM 54.0000 -113.7667 154° Southeast 370 426 16,800 -2,400 Descending Edmonton Center
11:48PM 53.9000 -113.7167 164° South 360 414 14,200 -2,400 Descending Edmonton Center
11:49PM 53.8000 -113.6667 164° South 350 403 12,000 -1,680 Descending Edmonton Center
11:50PM 53.7167 -113.6167 160° South 310 357 10,900 -1,260 Descending Edmonton Center
11:51PM 53.6333 -113.5667 160° South 290 334 9,500 -1,740 Descending Edmonton Center
11:52PM 53.5667 -113.5333 163° South 270 311 7,500 -1,620 Descending Edmonton Center
11:53PM 53.5167 -113.4833 149° Southeast 240 276 6,300 -960 Descending Edmonton Center
11:54PM 53.4500 -113.4500 163° South 210 242 5,600 -780 Descending Edmonton Center
11:55PM 53.4000 -113.4667 191° South 170 196 4,800 -900 Descending Edmonton Center
11:56PM 53.3667 -113.5167 222° Southwest 150 173 3,900 -840 Descending Edmonton Center
11:57PM 53.3333 -113.5667 222° Southwest 130 150 3,200 -660 Descending Edmonton Center
11:58PM 53.3167 -113.5833 211° Southwest 120 138 2,600 -600 Descending Edmonton Center